sensor_id;sensor_type;location;lat;lon;timestamp;P1;durP1;ratioP1;P2;durP2;ratioP2
40991;SDS011;29633;49.168;9.848;2022-07-23T00:01:36;3.80;;;3.17;;
40991;SDS011;29633;49.168;9.848;2022-07-23T00:04:02;3.40;;;3.05;;
40991;SDS011;29633;49.168;9.848;2022-07-23T00:06:27;4.22;;;3.28;;
40991;SDS011;29633;49.168;9.848;2022-07-23T00:08:53;5.10;;;3.22;;
40991;SDS011;29633;49.168;9.848;2022-07-23T00:11:19;3.60;;;3.30;;
40991;SDS011;29633;49.168;9.848;2022-07-23T00:13:46;4.78;;;3.78;;
40991;SDS011;29633;49.168;9.848;2022-07-23T00:16:12;3.65;;;3.35;;
40991;SDS011;29633;49.168;9.848;2022-07-23T00:18:38;3.78;;;3.50;;
40991;SDS011;29633;49.168;9.848;2022-07-23T00:21:04;3.67;;;3.30;;
40991;SDS011;29633;49.168;9.848;2022-07-23T00:23:30;3.78;;;3.30;;
40991;SDS011;29633;49.168;9.848;2022-07-23T00:25:56;3.45;;;3.15;;
40991;SDS011;29633;49.168;9.848;2022-07-23T00:28:22;3.90;;;3.33;;
40991;SDS011;29633;49.168;9.848;2022-07-23T00:30:48;4.18;;;3.28;;
40991;SDS011;29633;49.168;9.848;2022-07-23T00:33:13;4.13;;;3.20;;
40991;SDS011;29633;49.168;9.848;2022-07-23T00:35:39;4.35;;;3.15;;
40991;SDS011;29633;49.168;9.848;2022-07-23T00:38:06;3.58;;;3.00;;
40991;SDS011;29633;49.168;9.848;2022-07-23T00:40:34;3.08;;;2.88;;
40991;SDS011;29633;49.168;9.848;2022-07-23T00:43:01;2.90;;;2.70;;
40991;SDS011;29633;49.168;9.848;2022-07-23T00:45:28;3.20;;;2.90;;
40991;SDS011;29633;49.168;9.848;2022-07-23T00:47:55;3.97;;;2.40;;
40991;SDS011;29633;49.168;9.848;2022-07-23T00:50:20;2.60;;;2.40;;
40991;SDS011;29633;49.168;9.848;2022-07-23T00:52:46;4.85;;;2.40;;
40991;SDS011;29633;49.168;9.848;2022-07-23T00:55:12;3.10;;;2.50;;
40991;SDS011;29633;49.168;9.848;2022-07-23T00:57:39;2.40;;;2.15;;
40991;SDS011;29633;49.168;9.848;2022-07-23T01:00:06;2.53;;;2.33;;
40991;SDS011;29633;49.168;9.848;2022-07-23T01:02:36;2.85;;;2.50;;
40991;SDS011;29633;49.168;9.848;2022-07-23T01:05:02;2.55;;;2.20;;
40991;SDS011;29633;49.168;9.848;2022-07-23T01:07:29;2.65;;;2.45;;
40991;SDS011;29633;49.168;9.848;2022-07-23T01:09:55;2.60;;;2.40;;
40991;SDS011;29633;49.168;9.848;2022-07-23T01:12:21;2.40;;;2.20;;
40991;SDS011;29633;49.168;9.848;2022-07-23T01:14:57;2.60;;;2.25;;
40991;SDS011;29633;49.168;9.848;2022-07-23T01:17:24;4.22;;;2.65;;
40991;SDS011;29633;49.168;9.848;2022-07-23T01:19:51;2.65;;;2.45;;
40991;SDS011;29633;49.168;9.848;2022-07-23T01:22:20;2.45;;;2.25;;
40991;SDS011;29633;49.168;9.848;2022-07-23T01:24:46;2.30;;;2.10;;
40991;SDS011;29633;49.168;9.848;2022-07-23T01:27:12;2.58;;;2.10;;
40991;SDS011;29633;49.168;9.848;2022-07-23T01:29:38;2.67;;;2.47;;
40991;SDS011;29633;49.168;9.848;2022-07-23T01:32:05;2.30;;;2.10;;
40991;SDS011;29633;49.168;9.848;2022-07-23T01:34:32;2.63;;;2.42;;
40991;SDS011;29633;49.168;9.848;2022-07-23T01:36:58;2.67;;;2.47;;
40991;SDS011;29633;49.168;9.848;2022-07-23T01:39:23;2.63;;;2.38;;
40991;SDS011;29633;49.168;9.848;2022-07-23T01:41:49;2.60;;;2.40;;
40991;SDS011;29633;49.168;9.848;2022-07-23T01:44:15;3.90;;;2.10;;
40991;SDS011;29633;49.168;9.848;2022-07-23T01:46:40;2.35;;;2.15;;
40991;SDS011;29633;49.168;9.848;2022-07-23T01:49:07;2.13;;;2.03;;
40991;SDS011;29633;49.168;9.848;2022-07-23T01:51:33;3.03;;;2.40;;
40991;SDS011;29633;49.168;9.848;2022-07-23T01:53:58;2.50;;;2.22;;
40991;SDS011;29633;49.168;9.848;2022-07-23T01:56:24;2.45;;;2.25;;
40991;SDS011;29633;49.168;9.848;2022-07-23T01:58:50;2.40;;;2.20;;
40991;SDS011;29633;49.168;9.848;2022-07-23T02:01:16;2.55;;;2.15;;
40991;SDS011;29633;49.168;9.848;2022-07-23T02:03:41;2.83;;;2.15;;
40991;SDS011;29633;49.168;9.848;2022-07-23T02:06:07;2.15;;;1.98;;
40991;SDS011;29633;49.168;9.848;2022-07-23T02:08:33;3.17;;;2.33;;
40991;SDS011;29633;49.168;9.848;2022-07-23T02:10:59;2.50;;;1.90;;
40991;SDS011;29633;49.168;9.848;2022-07-23T02:13:24;4.63;;;2.30;;
40991;SDS011;29633;49.168;9.848;2022-07-23T02:15:50;2.30;;;2.10;;
40991;SDS011;29633;49.168;9.848;2022-07-23T02:18:16;2.22;;;2.03;;
40991;SDS011;29633;49.168;9.848;2022-07-23T02:20:42;2.28;;;2.08;;
40991;SDS011;29633;49.168;9.848;2022-07-23T02:23:09;2.42;;;2.17;;
40991;SDS011;29633;49.168;9.848;2022-07-23T02:25:35;2.13;;;2.00;;
40991;SDS011;29633;49.168;9.848;2022-07-23T02:28:01;2.33;;;2.15;;
40991;SDS011;29633;49.168;9.848;2022-07-23T02:30:27;2.33;;;2.03;;
40991;SDS011;29633;49.168;9.848;2022-07-23T02:32:52;2.58;;;2.10;;
40991;SDS011;29633;49.168;9.848;2022-07-23T02:35:19;2.05;;;1.85;;
40991;SDS011;29633;49.168;9.848;2022-07-23T02:37:44;2.22;;;2.13;;
40991;SDS011;29633;49.168;9.848;2022-07-23T02:40:10;2.35;;;2.15;;
40991;SDS011;29633;49.168;9.848;2022-07-23T02:42:36;2.08;;;1.92;;
40991;SDS011;29633;49.168;9.848;2022-07-23T02:45:02;2.70;;;2.50;;
40991;SDS011;29633;49.168;9.848;2022-07-23T02:47:28;3.47;;;2.30;;
40991;SDS011;29633;49.168;9.848;2022-07-23T02:49:54;3.85;;;1.98;;
40991;SDS011;29633;49.168;9.848;2022-07-23T02:52:20;2.10;;;1.90;;
40991;SDS011;29633;49.168;9.848;2022-07-23T02:54:46;2.22;;;2.03;;
40991;SDS011;29633;49.168;9.848;2022-07-23T02:57:12;2.20;;;2.00;;
40991;SDS011;29633;49.168;9.848;2022-07-23T02:59:37;2.20;;;1.80;;
40991;SDS011;29633;49.168;9.848;2022-07-23T03:02:03;2.63;;;2.15;;
40991;SDS011;29633;49.168;9.848;2022-07-23T03:04:29;4.85;;;2.13;;
40991;SDS011;29633;49.168;9.848;2022-07-23T03:06:55;2.33;;;1.80;;
40991;SDS011;29633;49.168;9.848;2022-07-23T03:09:20;2.40;;;2.20;;
40991;SDS011;29633;49.168;9.848;2022-07-23T03:11:46;2.63;;;2.17;;
40991;SDS011;29633;49.168;9.848;2022-07-23T03:14:12;2.40;;;2.15;;
40991;SDS011;29633;49.168;9.848;2022-07-23T03:16:38;2.88;;;2.15;;
40991;SDS011;29633;49.168;9.848;2022-07-23T03:19:05;1.92;;;1.83;;
40991;SDS011;29633;49.168;9.848;2022-07-23T03:21:31;3.45;;;2.20;;
40991;SDS011;29633;49.168;9.848;2022-07-23T03:23:57;2.13;;;1.92;;
40991;SDS011;29633;49.168;9.848;2022-07-23T03:26:22;2.05;;;1.85;;
40991;SDS011;29633;49.168;9.848;2022-07-23T03:28:50;2.00;;;1.90;;
40991;SDS011;29633;49.168;9.848;2022-07-23T03:31:16;2.25;;;2.05;;
40991;SDS011;29633;49.168;9.848;2022-07-23T03:33:42;2.10;;;2.00;;
40991;SDS011;29633;49.168;9.848;2022-07-23T03:36:08;2.10;;;2.00;;
40991;SDS011;29633;49.168;9.848;2022-07-23T03:38:34;2.80;;;2.00;;
40991;SDS011;29633;49.168;9.848;2022-07-23T03:40:59;2.30;;;2.10;;
40991;SDS011;29633;49.168;9.848;2022-07-23T03:43:25;2.42;;;1.90;;
40991;SDS011;29633;49.168;9.848;2022-07-23T03:45:51;2.72;;;2.17;;
40991;SDS011;29633;49.168;9.848;2022-07-23T03:48:17;2.30;;;2.10;;
40991;SDS011;29633;49.168;9.848;2022-07-23T03:50:42;2.67;;;2.10;;
40991;SDS011;29633;49.168;9.848;2022-07-23T03:53:08;2.47;;;2.28;;
40991;SDS011;29633;49.168;9.848;2022-07-23T03:55:34;2.47;;;2.17;;
40991;SDS011;29633;49.168;9.848;2022-07-23T03:58:00;2.60;;;2.40;;
40991;SDS011;29633;49.168;9.848;2022-07-23T04:00:26;2.40;;;2.20;;
40991;SDS011;29633;49.168;9.848;2022-07-23T04:02:51;2.88;;;2.30;;
40991;SDS011;29633;49.168;9.848;2022-07-23T04:05:17;3.08;;;2.33;;
40991;SDS011;29633;49.168;9.848;2022-07-23T04:07:43;2.75;;;2.38;;
40991;SDS011;29633;49.168;9.848;2022-07-23T04:10:09;2.50;;;2.28;;
40991;SDS011;29633;49.168;9.848;2022-07-23T04:12:34;3.28;;;2.20;;
40991;SDS011;29633;49.168;9.848;2022-07-23T04:15:00;2.70;;;2.40;;
40991;SDS011;29633;49.168;9.848;2022-07-23T04:17:26;2.60;;;2.40;;
40991;SDS011;29633;49.168;9.848;2022-07-23T04:19:53;2.30;;;2.10;;
40991;SDS011;29633;49.168;9.848;2022-07-23T04:22:18;1.90;;;1.73;;
40991;SDS011;29633;49.168;9.848;2022-07-23T04:24:44;2.33;;;2.08;;
40991;SDS011;29633;49.168;9.848;2022-07-23T04:27:10;2.40;;;2.15;;
40991;SDS011;29633;49.168;9.848;2022-07-23T04:29:36;2.45;;;1.95;;
40991;SDS011;29633;49.168;9.848;2022-07-23T04:32:02;2.20;;;2.05;;
40991;SDS011;29633;49.168;9.848;2022-07-23T04:34:28;2.20;;;1.95;;
40991;SDS011;29633;49.168;9.848;2022-07-23T04:36:53;3.58;;;2.20;;
40991;SDS011;29633;49.168;9.848;2022-07-23T04:39:19;2.53;;;2.10;;
40991;SDS011;29633;49.168;9.848;2022-07-23T04:41:45;4.57;;;2.13;;
40991;SDS011;29633;49.168;9.848;2022-07-23T04:44:11;2.17;;;1.95;;
40991;SDS011;29633;49.168;9.848;2022-07-23T04:46:37;2.58;;;2.13;;
40991;SDS011;29633;49.168;9.848;2022-07-23T04:49:02;2.50;;;2.20;;
40991;SDS011;29633;49.168;9.848;2022-07-23T04:51:28;2.28;;;1.98;;
40991;SDS011;29633;49.168;9.848;2022-07-23T04:53:54;2.47;;;2.28;;
40991;SDS011;29633;49.168;9.848;2022-07-23T04:56:20;3.90;;;2.10;;
40991;SDS011;29633;49.168;9.848;2022-07-23T04:58:47;2.30;;;2.10;;
40991;SDS011;29633;49.168;9.848;2022-07-23T05:01:13;2.88;;;2.15;;
40991;SDS011;29633;49.168;9.848;2022-07-23T05:03:39;2.38;;;1.88;;
40991;SDS011;29633;49.168;9.848;2022-07-23T05:06:04;5.60;;;2.10;;
40991;SDS011;29633;49.168;9.848;2022-07-23T05:08:30;2.65;;;2.15;;
40991;SDS011;29633;49.168;9.848;2022-07-23T05:10:56;2.40;;;2.20;;
40991;SDS011;29633;49.168;9.848;2022-07-23T05:13:22;2.33;;;2.13;;
40991;SDS011;29633;49.168;9.848;2022-07-23T05:15:48;2.50;;;2.30;;
40991;SDS011;29633;49.168;9.848;2022-07-23T05:18:14;2.60;;;2.15;;
40991;SDS011;29633;49.168;9.848;2022-07-23T05:20:40;2.53;;;2.33;;
40991;SDS011;29633;49.168;9.848;2022-07-23T05:23:06;2.58;;;2.30;;
40991;SDS011;29633;49.168;9.848;2022-07-23T05:25:32;4.18;;;2.50;;
40991;SDS011;29633;49.168;9.848;2022-07-23T05:27:58;2.42;;;2.22;;
40991;SDS011;29633;49.168;9.848;2022-07-23T05:30:24;2.78;;;2.58;;
40991;SDS011;29633;49.168;9.848;2022-07-23T05:32:49;3.22;;;2.38;;
40991;SDS011;29633;49.168;9.848;2022-07-23T05:35:15;2.58;;;2.38;;
40991;SDS011;29633;49.168;9.848;2022-07-23T05:37:41;2.42;;;2.22;;
40991;SDS011;29633;49.168;9.848;2022-07-23T05:40:08;2.67;;;2.40;;
40991;SDS011;29633;49.168;9.848;2022-07-23T05:42:35;2.60;;;2.30;;
40991;SDS011;29633;49.168;9.848;2022-07-23T05:45:03;2.55;;;2.35;;
40991;SDS011;29633;49.168;9.848;2022-07-23T05:47:42;2.58;;;2.38;;
40991;SDS011;29633;49.168;9.848;2022-07-23T05:50:10;3.13;;;2.60;;
40991;SDS011;29633;49.168;9.848;2022-07-23T05:52:37;2.95;;;2.28;;
40991;SDS011;29633;49.168;9.848;2022-07-23T05:55:03;2.80;;;2.60;;
40991;SDS011;29633;49.168;9.848;2022-07-23T05:57:30;2.58;;;2.38;;
40991;SDS011;29633;49.168;9.848;2022-07-23T05:59:56;2.95;;;2.70;;
40991;SDS011;29633;49.168;9.848;2022-07-23T06:02:21;3.05;;;2.75;;
40991;SDS011;29633;49.168;9.848;2022-07-23T06:04:47;2.80;;;2.60;;
40991;SDS011;29633;49.168;9.848;2022-07-23T06:07:13;2.85;;;2.40;;
40991;SDS011;29633;49.168;9.848;2022-07-23T06:09:39;3.15;;;2.95;;
40991;SDS011;29633;49.168;9.848;2022-07-23T06:12:04;4.15;;;2.90;;
40991;SDS011;29633;49.168;9.848;2022-07-23T06:14:31;3.35;;;3.05;;
40991;SDS011;29633;49.168;9.848;2022-07-23T06:16:56;3.08;;;2.80;;
40991;SDS011;29633;49.168;9.848;2022-07-23T06:19:22;3.42;;;2.85;;
40991;SDS011;29633;49.168;9.848;2022-07-23T06:21:48;3.22;;;2.83;;
40991;SDS011;29633;49.168;9.848;2022-07-23T06:24:13;3.22;;;2.90;;
40991;SDS011;29633;49.168;9.848;2022-07-23T06:26:39;3.33;;;3.03;;
40991;SDS011;29633;49.168;9.848;2022-07-23T06:29:05;3.33;;;3.03;;
40991;SDS011;29633;49.168;9.848;2022-07-23T06:31:31;3.38;;;3.08;;
40991;SDS011;29633;49.168;9.848;2022-07-23T06:33:56;3.50;;;3.17;;
40991;SDS011;29633;49.168;9.848;2022-07-23T06:36:22;3.85;;;3.35;;
40991;SDS011;29633;49.168;9.848;2022-07-23T06:38:48;3.92;;;3.53;;
40991;SDS011;29633;49.168;9.848;2022-07-23T06:41:14;5.28;;;4.03;;
40991;SDS011;29633;49.168;9.848;2022-07-23T06:43:39;4.32;;;3.92;;
40991;SDS011;29633;49.168;9.848;2022-07-23T06:46:05;4.78;;;4.38;;
40991;SDS011;29633;49.168;9.848;2022-07-23T06:48:31;3.92;;;3.63;;
40991;SDS011;29633;49.168;9.848;2022-07-23T06:50:56;4.88;;;4.45;;
40991;SDS011;29633;49.168;9.848;2022-07-23T06:53:22;4.28;;;3.83;;
40991;SDS011;29633;49.168;9.848;2022-07-23T06:55:48;4.68;;;3.90;;
40991;SDS011;29633;49.168;9.848;2022-07-23T06:58:14;5.25;;;3.97;;
40991;SDS011;29633;49.168;9.848;2022-07-23T07:00:40;4.63;;;4.28;;
40991;SDS011;29633;49.168;9.848;2022-07-23T07:03:05;5.35;;;4.72;;
40991;SDS011;29633;49.168;9.848;2022-07-23T07:05:31;5.70;;;4.50;;
40991;SDS011;29633;49.168;9.848;2022-07-23T07:07:57;4.97;;;4.57;;
40991;SDS011;29633;49.168;9.848;2022-07-23T07:10:23;4.82;;;4.43;;
40991;SDS011;29633;49.168;9.848;2022-07-23T07:12:48;4.63;;;4.22;;
40991;SDS011;29633;49.168;9.848;2022-07-23T07:15:14;4.90;;;4.50;;
40991;SDS011;29633;49.168;9.848;2022-07-23T07:17:40;5.47;;;4.60;;
40991;SDS011;29633;49.168;9.848;2022-07-23T07:20:08;6.63;;;4.70;;
40991;SDS011;29633;49.168;9.848;2022-07-23T07:22:35;5.07;;;4.68;;
40991;SDS011;29633;49.168;9.848;2022-07-23T07:25:01;4.95;;;4.45;;
40991;SDS011;29633;49.168;9.848;2022-07-23T07:27:26;4.82;;;4.43;;
40991;SDS011;29633;49.168;9.848;2022-07-23T07:29:52;4.63;;;4.22;;
40991;SDS011;29633;49.168;9.848;2022-07-23T07:32:18;4.47;;;4.18;;
40991;SDS011;29633;49.168;9.848;2022-07-23T07:34:43;5.22;;;4.72;;
40991;SDS011;29633;49.168;9.848;2022-07-23T07:37:09;6.28;;;4.68;;
40991;SDS011;29633;49.168;9.848;2022-07-23T07:39:35;4.78;;;4.38;;
40991;SDS011;29633;49.168;9.848;2022-07-23T07:42:00;6.15;;;4.10;;
40991;SDS011;29633;49.168;9.848;2022-07-23T07:44:26;4.75;;;4.32;;
40991;SDS011;29633;49.168;9.848;2022-07-23T07:46:52;5.43;;;4.43;;
40991;SDS011;29633;49.168;9.848;2022-07-23T07:49:18;5.82;;;5.18;;
40991;SDS011;29633;49.168;9.848;2022-07-23T07:51:44;4.97;;;4.47;;
40991;SDS011;29633;49.168;9.848;2022-07-23T07:54:14;4.70;;;4.30;;
40991;SDS011;29633;49.168;9.848;2022-07-23T07:56:39;4.95;;;4.55;;
40991;SDS011;29633;49.168;9.848;2022-07-23T07:59:05;4.70;;;4.20;;
40991;SDS011;29633;49.168;9.848;2022-07-23T08:01:31;5.00;;;3.88;;
40991;SDS011;29633;49.168;9.848;2022-07-23T08:03:57;4.78;;;4.38;;
40991;SDS011;29633;49.168;9.848;2022-07-23T08:06:22;4.30;;;3.90;;
40991;SDS011;29633;49.168;9.848;2022-07-23T08:08:48;3.40;;;3.15;;
40991;SDS011;29633;49.168;9.848;2022-07-23T08:11:14;3.90;;;3.50;;
40991;SDS011;29633;49.168;9.848;2022-07-23T08:13:40;3.60;;;3.30;;
40991;SDS011;29633;49.168;9.848;2022-07-23T08:16:06;3.70;;;3.40;;
40991;SDS011;29633;49.168;9.848;2022-07-23T08:18:32;3.65;;;3.35;;
40991;SDS011;29633;49.168;9.848;2022-07-23T08:20:57;5.07;;;3.30;;
40991;SDS011;29633;49.168;9.848;2022-07-23T08:23:23;3.80;;;3.50;;
40991;SDS011;29633;49.168;9.848;2022-07-23T08:25:49;3.95;;;3.60;;
40991;SDS011;29633;49.168;9.848;2022-07-23T08:28:15;3.90;;;3.60;;
40991;SDS011;29633;49.168;9.848;2022-07-23T08:30:41;5.00;;;3.60;;
40991;SDS011;29633;49.168;9.848;2022-07-23T08:33:13;4.15;;;3.38;;
40991;SDS011;29633;49.168;9.848;2022-07-23T08:35:44;3.85;;;3.05;;
40991;SDS011;29633;49.168;9.848;2022-07-23T08:38:12;4.68;;;3.80;;
40991;SDS011;29633;49.168;9.848;2022-07-23T08:40:41;5.88;;;3.50;;
40991;SDS011;29633;49.168;9.848;2022-07-23T08:43:12;4.18;;;3.78;;
40991;SDS011;29633;49.168;9.848;2022-07-23T08:45:41;4.32;;;3.63;;
40991;SDS011;29633;49.168;9.848;2022-07-23T08:48:19;5.10;;;3.47;;
40991;SDS011;29633;49.168;9.848;2022-07-23T08:50:48;3.50;;;3.20;;
40991;SDS011;29633;49.168;9.848;2022-07-23T08:53:19;3.53;;;2.85;;
40991;SDS011;29633;49.168;9.848;2022-07-23T08:55:48;3.42;;;3.00;;
40991;SDS011;29633;49.168;9.848;2022-07-23T08:58:17;3.03;;;2.42;;
40991;SDS011;29633;49.168;9.848;2022-07-23T09:00:44;3.13;;;2.83;;
40991;SDS011;29633;49.168;9.848;2022-07-23T09:03:15;3.00;;;2.80;;
40991;SDS011;29633;49.168;9.848;2022-07-23T09:05:49;3.15;;;2.85;;
40991;SDS011;29633;49.168;9.848;2022-07-23T09:08:17;3.80;;;2.90;;
40991;SDS011;29633;49.168;9.848;2022-07-23T09:10:55;3.40;;;3.10;;
40991;SDS011;29633;49.168;9.848;2022-07-23T09:15:51;3.33;;;3.03;;
40991;SDS011;29633;49.168;9.848;2022-07-23T09:18:19;2.85;;;2.65;;
40991;SDS011;29633;49.168;9.848;2022-07-23T09:21:20;2.63;;;2.42;;
40991;SDS011;29633;49.168;9.848;2022-07-23T09:31:48;3.05;;;2.85;;
40991;SDS011;29633;49.168;9.848;2022-07-23T09:34:21;3.33;;;3.03;;
40991;SDS011;29633;49.168;9.848;2022-07-23T09:36:57;4.65;;;2.90;;
40991;SDS011;29633;49.168;9.848;2022-07-23T09:39:38;3.95;;;3.63;;
40991;SDS011;29633;49.168;9.848;2022-07-23T09:44:52;3.58;;;3.28;;
40991;SDS011;29633;49.168;9.848;2022-07-23T09:50:07;2.92;;;2.70;;
40991;SDS011;29633;49.168;9.848;2022-07-23T09:52:43;3.30;;;3.03;;
40991;SDS011;29633;49.168;9.848;2022-07-23T09:55:14;4.47;;;3.58;;
40991;SDS011;29633;49.168;9.848;2022-07-23T09:57:42;3.47;;;3.17;;
40991;SDS011;29633;49.168;9.848;2022-07-23T10:00:10;3.45;;;2.90;;
40991;SDS011;29633;49.168;9.848;2022-07-23T10:02:38;3.70;;;3.40;;
40991;SDS011;29633;49.168;9.848;2022-07-23T10:05:04;3.22;;;2.95;;
40991;SDS011;29633;49.168;9.848;2022-07-23T10:07:33;3.20;;;2.90;;
40991;SDS011;29633;49.168;9.848;2022-07-23T10:10:03;4.03;;;3.55;;
40991;SDS011;29633;49.168;9.848;2022-07-23T10:12:30;3.88;;;3.58;;
40991;SDS011;29633;49.168;9.848;2022-07-23T10:15:05;3.95;;;3.60;;
40991;SDS011;29633;49.168;9.848;2022-07-23T10:17:32;3.30;;;3.08;;
40991;SDS011;29633;49.168;9.848;2022-07-23T10:19:59;3.10;;;2.80;;
40991;SDS011;29633;49.168;9.848;2022-07-23T10:22:26;4.60;;;3.08;;
40991;SDS011;29633;49.168;9.848;2022-07-23T10:31:00;4.28;;;2.88;;
40991;SDS011;29633;49.168;9.848;2022-07-23T10:33:54;3.38;;;2.75;;
40991;SDS011;29633;49.168;9.848;2022-07-23T10:36:42;3.20;;;3.00;;
40991;SDS011;29633;49.168;9.848;2022-07-23T10:42:17;3.20;;;3.00;;
40991;SDS011;29633;49.168;9.848;2022-07-23T10:47:11;3.17;;;2.88;;
40991;SDS011;29633;49.168;9.848;2022-07-23T10:50:16;3.10;;;2.90;;
40991;SDS011;29633;49.168;9.848;2022-07-23T10:53:14;2.75;;;2.55;;
40991;SDS011;29633;49.168;9.848;2022-07-23T10:58:12;3.65;;;3.35;;
40991;SDS011;29633;49.168;9.848;2022-07-23T11:00:46;3.35;;;3.15;;
40991;SDS011;29633;49.168;9.848;2022-07-23T11:03:28;3.40;;;3.17;;
40991;SDS011;29633;49.168;9.848;2022-07-23T11:05:57;3.83;;;3.17;;
40991;SDS011;29633;49.168;9.848;2022-07-23T11:08:24;3.90;;;3.58;;
40991;SDS011;29633;49.168;9.848;2022-07-23T11:10:51;3.30;;;3.00;;
40991;SDS011;29633;49.168;9.848;2022-07-23T11:24:00;2.67;;;2.47;;
40991;SDS011;29633;49.168;9.848;2022-07-23T11:37:08;3.13;;;2.70;;
40991;SDS011;29633;49.168;9.848;2022-07-23T11:39:36;2.83;;;2.63;;
40991;SDS011;29633;49.168;9.848;2022-07-23T11:42:04;4.10;;;3.17;;
40991;SDS011;29633;49.168;9.848;2022-07-23T11:44:32;3.42;;;3.13;;
40991;SDS011;29633;49.168;9.848;2022-07-23T11:47:04;3.70;;;3.42;;
40991;SDS011;29633;49.168;9.848;2022-07-23T11:49:33;5.13;;;3.35;;
40991;SDS011;29633;49.168;9.848;2022-07-23T11:52:08;3.22;;;2.92;;
40991;SDS011;29633;49.168;9.848;2022-07-23T11:54:49;2.92;;;2.72;;
40991;SDS011;29633;49.168;9.848;2022-07-23T11:57:26;2.95;;;2.75;;
40991;SDS011;29633;49.168;9.848;2022-07-23T12:00:00;3.03;;;2.80;;
40991;SDS011;29633;49.168;9.848;2022-07-23T12:02:37;2.88;;;2.58;;
40991;SDS011;29633;49.168;9.848;2022-07-23T12:05:12;4.72;;;2.95;;
40991;SDS011;29633;49.168;9.848;2022-07-23T12:07:44;3.15;;;2.63;;
40991;SDS011;29633;49.168;9.848;2022-07-23T12:10:17;4.03;;;2.85;;
40991;SDS011;29633;49.168;9.848;2022-07-23T12:13:01;3.03;;;2.83;;
40991;SDS011;29633;49.168;9.848;2022-07-23T12:15:35;3.28;;;2.97;;
40991;SDS011;29633;49.168;9.848;2022-07-23T12:18:06;3.33;;;3.03;;
40991;SDS011;29633;49.168;9.848;2022-07-23T12:20:37;3.30;;;3.00;;
40991;SDS011;29633;49.168;9.848;2022-07-23T12:23:07;4.40;;;3.40;;
40991;SDS011;29633;49.168;9.848;2022-07-23T12:25:36;3.78;;;3.45;;
40991;SDS011;29633;49.168;9.848;2022-07-23T12:28:11;3.38;;;3.08;;
40991;SDS011;29633;49.168;9.848;2022-07-23T12:30:40;3.22;;;2.92;;
40991;SDS011;29633;49.168;9.848;2022-07-23T12:33:13;3.72;;;3.08;;
40991;SDS011;29633;49.168;9.848;2022-07-23T12:35:55;5.88;;;3.40;;
40991;SDS011;29633;49.168;9.848;2022-07-23T12:38:28;3.55;;;3.25;;
40991;SDS011;29633;49.168;9.848;2022-07-23T12:41:05;4.30;;;4.00;;
40991;SDS011;29633;49.168;9.848;2022-07-23T12:46:03;3.95;;;3.65;;
40991;SDS011;29633;49.168;9.848;2022-07-23T12:48:32;3.60;;;3.30;;
40991;SDS011;29633;49.168;9.848;2022-07-23T12:53:38;3.90;;;3.45;;
40991;SDS011;29633;49.168;9.848;2022-07-23T13:01:32;3.85;;;3.10;;
40991;SDS011;29633;49.168;9.848;2022-07-23T13:06:51;3.47;;;3.20;;
40991;SDS011;29633;49.168;9.848;2022-07-23T13:09:24;4.10;;;3.58;;
40991;SDS011;29633;49.168;9.848;2022-07-23T13:11:53;4.20;;;3.90;;
40991;SDS011;29633;49.168;9.848;2022-07-23T13:14:20;4.05;;;3.75;;
40991;SDS011;29633;49.168;9.848;2022-07-23T13:16:47;4.38;;;3.90;;
40991;SDS011;29633;49.168;9.848;2022-07-23T13:19:15;4.10;;;3.60;;
40991;SDS011;29633;49.168;9.848;2022-07-23T13:21:42;3.88;;;3.58;;
40991;SDS011;29633;49.168;9.848;2022-07-23T13:24:09;4.07;;;3.63;;
40991;SDS011;29633;49.168;9.848;2022-07-23T13:26:37;4.28;;;3.95;;
40991;SDS011;29633;49.168;9.848;2022-07-23T13:29:03;3.72;;;3.50;;
40991;SDS011;29633;49.168;9.848;2022-07-23T13:31:30;4.05;;;3.67;;
40991;SDS011;29633;49.168;9.848;2022-07-23T13:33:56;4.70;;;4.30;;
40991;SDS011;29633;49.168;9.848;2022-07-23T13:36:22;4.50;;;3.80;;
40991;SDS011;29633;49.168;9.848;2022-07-23T13:38:47;3.67;;;3.45;;
40991;SDS011;29633;49.168;9.848;2022-07-23T13:41:13;3.90;;;3.60;;
40991;SDS011;29633;49.168;9.848;2022-07-23T13:43:41;4.22;;;3.83;;
40991;SDS011;29633;49.168;9.848;2022-07-23T13:46:07;4.07;;;3.70;;
40991;SDS011;29633;49.168;9.848;2022-07-23T13:48:32;3.55;;;3.35;;
40991;SDS011;29633;49.168;9.848;2022-07-23T13:50:58;4.10;;;3.70;;
40991;SDS011;29633;49.168;9.848;2022-07-23T13:53:24;3.72;;;3.42;;
40991;SDS011;29633;49.168;9.848;2022-07-23T13:55:50;3.72;;;3.42;;
40991;SDS011;29633;49.168;9.848;2022-07-23T13:58:18;4.03;;;3.72;;
40991;SDS011;29633;49.168;9.848;2022-07-23T14:00:46;3.95;;;3.65;;
40991;SDS011;29633;49.168;9.848;2022-07-23T14:05:43;3.65;;;3.35;;
40991;SDS011;29633;49.168;9.848;2022-07-23T14:08:09;3.50;;;3.20;;
40991;SDS011;29633;49.168;9.848;2022-07-23T14:10:35;4.53;;;3.63;;
40991;SDS011;29633;49.168;9.848;2022-07-23T14:13:02;4.20;;;3.83;;
40991;SDS011;29633;49.168;9.848;2022-07-23T14:15:28;3.67;;;3.38;;
40991;SDS011;29633;49.168;9.848;2022-07-23T14:17:56;3.70;;;3.40;;
40991;SDS011;29633;49.168;9.848;2022-07-23T14:20:23;3.40;;;3.10;;
40991;SDS011;29633;49.168;9.848;2022-07-23T14:22:49;3.17;;;2.90;;
40991;SDS011;29633;49.168;9.848;2022-07-23T14:25:15;3.50;;;3.20;;
40991;SDS011;29633;49.168;9.848;2022-07-23T14:27:41;2.83;;;2.63;;
40991;SDS011;29633;49.168;9.848;2022-07-23T14:30:08;3.95;;;2.67;;
40991;SDS011;29633;49.168;9.848;2022-07-23T14:32:35;3.17;;;2.85;;
40991;SDS011;29633;49.168;9.848;2022-07-23T14:35:02;3.05;;;2.75;;
40991;SDS011;29633;49.168;9.848;2022-07-23T14:37:29;2.72;;;2.53;;
40991;SDS011;29633;49.168;9.848;2022-07-23T14:39:55;2.75;;;2.55;;
40991;SDS011;29633;49.168;9.848;2022-07-23T14:42:21;3.00;;;2.80;;
40991;SDS011;29633;49.168;9.848;2022-07-23T14:44:47;3.00;;;2.80;;
40991;SDS011;29633;49.168;9.848;2022-07-23T14:47:12;3.13;;;2.83;;
40991;SDS011;29633;49.168;9.848;2022-07-23T14:49:41;4.22;;;2.95;;
40991;SDS011;29633;49.168;9.848;2022-07-23T14:52:07;3.13;;;2.80;;
40991;SDS011;29633;49.168;9.848;2022-07-23T14:54:33;6.45;;;2.65;;
40991;SDS011;29633;49.168;9.848;2022-07-23T14:56:59;3.97;;;2.72;;
40991;SDS011;29633;49.168;9.848;2022-07-23T14:59:27;3.97;;;2.63;;
40991;SDS011;29633;49.168;9.848;2022-07-23T15:01:55;3.20;;;2.70;;
40991;SDS011;29633;49.168;9.848;2022-07-23T15:04:21;3.15;;;2.85;;
40991;SDS011;29633;49.168;9.848;2022-07-23T15:06:47;3.00;;;2.80;;
40991;SDS011;29633;49.168;9.848;2022-07-23T15:09:13;3.25;;;2.95;;
40991;SDS011;29633;49.168;9.848;2022-07-23T15:11:39;3.20;;;2.90;;
40991;SDS011;29633;49.168;9.848;2022-07-23T15:14:05;3.38;;;3.13;;
40991;SDS011;29633;49.168;9.848;2022-07-23T15:16:32;3.72;;;2.50;;
40991;SDS011;29633;49.168;9.848;2022-07-23T15:18:58;3.28;;;3.03;;
40991;SDS011;29633;49.168;9.848;2022-07-23T15:21:24;3.30;;;3.00;;
40991;SDS011;29633;49.168;9.848;2022-07-23T15:23:50;3.50;;;3.20;;
40991;SDS011;29633;49.168;9.848;2022-07-23T15:26:17;3.88;;;3.20;;
40991;SDS011;29633;49.168;9.848;2022-07-23T15:28:43;3.95;;;3.00;;
40991;SDS011;29633;49.168;9.848;2022-07-23T15:31:09;5.38;;;3.25;;
40991;SDS011;29633;49.168;9.848;2022-07-23T15:33:35;3.88;;;2.83;;
40991;SDS011;29633;49.168;9.848;2022-07-23T15:36:02;3.63;;;3.30;;
40991;SDS011;29633;49.168;9.848;2022-07-23T15:38:28;3.50;;;3.20;;
40991;SDS011;29633;49.168;9.848;2022-07-23T15:40:54;4.03;;;3.28;;
40991;SDS011;29633;49.168;9.848;2022-07-23T15:43:24;3.35;;;3.03;;
40991;SDS011;29633;49.168;9.848;2022-07-23T15:45:51;6.60;;;5.28;;
40991;SDS011;29633;49.168;9.848;2022-07-23T15:48:18;5.50;;;4.32;;
40991;SDS011;29633;49.168;9.848;2022-07-23T15:50:45;4.03;;;3.67;;
40991;SDS011;29633;49.168;9.848;2022-07-23T15:53:13;3.67;;;3.38;;
40991;SDS011;29633;49.168;9.848;2022-07-23T15:55:39;3.53;;;3.22;;
40991;SDS011;29633;49.168;9.848;2022-07-23T15:58:06;4.32;;;3.92;;